Time;durP1;ratioP1;P1;durP2;ratioP2;P2;SDS_P1;SDS_P2;PMS_P1;PMS_P2;Temp;Humidity;BMP_temperature;BMP_pressure;BME280_temperature;BME280_humidity;BME280_pressure;Samples;Min_cycle;Max_cycle;Signal;HPM_P1;HPM_P2
2022/07/24 00:02:00;;;;;;;20.40;15.50;;;;;;;18.04;77.02;101763.22;5076194;28;20391;-85
2022/07/24 00:04:25;;;;;;;19.80;14.70;;;;;;;18.04;76.88;101765.16;5093731;28;20052;-84
2022/07/24 00:06:51;;;;;;;20.67;15.67;;;;;;;18.08;76.59;101771.00;5092354;28;20028;-84
2022/07/24 00:09:16;;;;;;;20.27;15.67;;;;;;;17.99;76.47;101754.91;5078236;28;20110;-83
2022/07/24 00:11:42;;;;;;;21.10;15.40;;;;;;;17.99;76.78;101757.66;5077929;28;20059;-85
2022/07/24 00:14:07;;;;;;;19.10;14.70;;;;;;;18.09;76.48;101761.69;5084527;28;20115;-83
2022/07/24 00:16:32;;;;;;;19.13;15.43;;;;;;;18.04;76.35;101760.50;5084963;28;20482;-83
2022/07/24 00:18:58;;;;;;;20.87;15.20;;;;;;;18.03;76.98;101764.34;5090059;28;20016;-83
2022/07/24 00:21:23;;;;;;;20.60;14.93;;;;;;;17.98;77.50;101772.44;5080288;28;20035;-83
2022/07/24 00:27:10;;;;;;;18.30;14.77;;;;;;;17.84;80.20;101766.34;5095083;28;20031;-82
2022/07/24 00:29:36;;;;;;;19.47;15.00;;;;;;;17.89;77.29;101768.34;5095137;28;20028;-83
2022/07/24 00:32:01;;;;;;;21.33;15.33;;;;;;;17.86;77.92;101764.19;5094697;28;20126;-83
2022/07/24 00:34:26;;;;;;;18.97;14.77;;;;;;;17.86;77.27;101764.19;5094753;28;20352;-83
2022/07/24 00:36:52;;;;;;;18.90;14.83;;;;;;;17.77;78.04;101754.63;5093271;28;20020;-83
2022/07/24 00:39:17;;;;;;;19.43;15.03;;;;;;;17.85;77.01;101762.50;5074084;28;20479;-83
2022/07/24 00:41:43;;;;;;;20.53;14.57;;;;;;;17.68;79.03;101756.91;5094912;28;20082;-83
2022/07/24 00:44:14;;;;;;;21.60;14.60;;;;;;;17.69;79.37;101758.59;5093505;28;20028;-82
2022/07/24 00:46:42;;;;;;;18.30;15.07;;;;;;;17.58;80.47;101756.66;5092686;28;20016;-82
2022/07/24 00:49:13;;;;;;;18.03;14.13;;;;;;;17.76;77.87;101771.31;5097930;28;20427;-83
2022/07/24 00:51:41;;;;;;;17.70;14.30;;;;;;;17.72;77.71;101769.06;5104294;28;20027;-83
2022/07/24 00:54:09;;;;;;;20.03;14.37;;;;;;;17.71;78.19;101769.31;5110736;28;20463;-84
2022/07/24 00:56:35;;;;;;;19.63;14.03;;;;;;;17.69;78.17;101764.06;5114638;28;20023;-84
2022/07/24 00:59:02;;;;;;;18.00;13.80;;;;;;;17.71;78.11;101764.66;5096654;28;20383;-83
2022/07/24 01:01:27;;;;;;;18.73;14.23;;;;;;;17.74;77.24;101760.59;5101025;28;20093;-83
2022/07/24 01:03:53;;;;;;;17.77;13.87;;;;;;;17.72;78.19;101768.25;5094067;28;20470;-84
2022/07/24 01:06:19;;;;;;;18.63;13.37;;;;;;;17.74;77.66;101768.81;5094468;28;20028;-83
2022/07/24 01:08:45;;;;;;;19.17;14.40;;;;;;;17.72;77.45;101763.59;5075824;28;20028;-83
2022/07/24 01:11:11;;;;;;;20.67;14.10;;;;;;;17.68;77.04;101740.47;5093936;28;20039;-83
2022/07/24 01:13:36;;;;;;;18.27;13.90;;;;;;;17.73;77.58;101753.44;5111845;28;20455;-82
2022/07/24 01:16:02;;;;;;;17.70;14.27;;;;;;;17.71;77.50;101752.84;5096380;28;20019;-82
2022/07/24 01:18:28;;;;;;;18.37;13.80;;;;;;;17.64;77.24;101744.75;5114613;28;20106;-84
2022/07/24 01:20:55;;;;;;;19.17;14.33;;;;;;;17.71;77.64;101755.59;5087625;28;20039;-82
2022/07/24 01:23:20;;;;;;;19.63;13.97;;;;;;;17.60;79.28;101749.03;5059532;28;20371;-82
2022/07/24 01:25:46;;;;;;;19.77;14.77;;;;;;;17.65;78.18;101748.31;5094643;28;20085;-83
2022/07/24 01:28:11;;;;;;;18.40;14.40;;;;;;;17.57;79.24;101741.31;5092551;28;20024;-83
2022/07/24 01:30:37;;;;;;;18.53;14.30;;;;;;;17.59;78.30;101738.31;5082212;28;20081;-83
2022/07/24 01:33:02;;;;;;;21.03;14.60;;;;;;;17.59;78.09;101733.66;5088407;28;20033;-84
2022/07/24 01:35:28;;;;;;;19.60;14.50;;;;;;;17.55;78.42;101730.56;5106150;28;20120;-84
2022/07/24 01:37:53;;;;;;;20.57;14.17;;;;;;;17.57;78.13;101732.22;5114401;28;20027;-85
2022/07/24 01:40:20;;;;;;;17.97;13.77;;;;;;;17.60;77.63;101732.59;5114690;28;20036;-83
2022/07/24 01:42:46;;;;;;;19.30;14.53;;;;;;;17.56;78.17;101725.91;5073329;28;20391;-82
2022/07/24 01:45:12;;;;;;;18.90;13.50;;;;;;;17.54;78.38;101723.44;5094794;28;20027;-83
2022/07/24 01:47:37;;;;;;;17.63;13.53;;;;;;;17.57;78.17;101730.34;5109735;28;20456;-83
2022/07/24 01:50:04;;;;;;;17.97;13.37;;;;;;;17.58;78.01;101729.25;5079126;28;20035;-84
2022/07/24 01:52:29;;;;;;;17.83;13.80;;;;;;;17.52;77.91;101717.34;5079603;28;20039;-83
2022/07/24 01:54:54;;;;;;;19.50;14.00;;;;;;;17.54;78.11;101722.56;5093246;28;20040;-84
2022/07/24 01:57:20;;;;;;;19.97;13.90;;;;;;;17.53;78.09;101720.94;5090631;28;20028;-85
2022/07/24 01:59:46;;;;;;;18.87;13.77;;;;;;;17.50;78.66;101718.63;5073407;28;20039;-85
2022/07/24 02:02:11;;;;;;;17.73;14.23;;;;;;;17.51;78.51;101731.28;5073193;28;20399;-84
2022/07/24 02:04:37;;;;;;;20.47;13.93;;;;;;;17.48;78.91;101720.78;5052819;28;20053;-84
2022/07/24 02:07:02;;;;;;;19.30;14.47;;;;;;;17.36;79.94;101721.59;5067647;28;20064;-82
2022/07/24 02:09:28;;;;;;;21.93;16.50;;;;;;;17.34;79.56;101714.72;5057996;28;20460;-84
2022/07/24 02:11:53;;;;;;;24.10;16.70;;;;;;;17.37;79.21;101719.72;5072253;28;20020;-83
2022/07/24 02:14:19;;;;;;;20.83;16.13;;;;;;;17.31;80.76;101726.13;5041933;28;20430;-83
2022/07/24 02:16:45;;;;;;;21.33;16.57;;;;;;;17.29;80.03;101726.34;5051077;28;20491;-84
2022/07/24 02:19:10;;;;;;;21.37;16.97;;;;;;;17.24;80.28;101723.47;5052826;28;20040;-83
2022/07/24 02:21:36;;;;;;;26.57;18.67;;;;;;;17.19;80.68;101726.94;5063337;28;20025;-83
2022/07/24 02:24:01;;;;;;;22.10;16.20;;;;;;;17.14;81.01;101731.44;5059906;28;20033;-83
2022/07/24 02:26:27;;;;;;;20.80;16.00;;;;;;;17.07;81.64;101727.97;5056447;28;20029;-82
2022/07/24 02:28:52;;;;;;;21.43;15.20;;;;;;;17.04;81.60;101730.13;5055168;28;20033;-82
2022/07/24 02:31:17;;;;;;;21.63;15.30;;;;;;;16.97;82.29;101732.13;5055926;28;20419;-82
2022/07/24 02:33:43;;;;;;;20.73;15.33;;;;;;;16.94;82.75;101729.84;5058190;28;20345;-83
2022/07/24 02:36:08;;;;;;;20.73;15.10;;;;;;;16.87;82.74;101723.59;5054879;28;20028;-82
2022/07/24 02:38:34;;;;;;;19.43;15.13;;;;;;;16.86;83.49;101730.13;5052913;28;20119;-83
2022/07/24 02:41:00;;;;;;;19.67;14.97;;;;;;;16.88;83.40;101719.81;5051679;28;20037;-82
2022/07/24 02:43:25;;;;;;;19.80;15.20;;;;;;;16.81;84.25;101724.50;5055829;28;20025;-82
2022/07/24 02:45:51;;;;;;;20.70;14.73;;;;;;;16.76;84.53;101718.94;5056620;28;20021;-82
2022/07/24 02:48:16;;;;;;;19.37;14.70;;;;;;;16.62;84.68;101718.25;5055307;28;20032;-83
2022/07/24 02:50:41;;;;;;;20.53;15.67;;;;;;;16.62;84.82;101727.31;5058847;28;20067;-82
2022/07/24 02:53:07;;;;;;;18.90;14.30;;;;;;;16.58;85.44;101725.25;5055631;28;20033;-82
2022/07/24 02:55:32;;;;;;;19.63;15.37;;;;;;;16.60;84.72;101723.97;5071932;28;20056;-83
2022/07/24 02:57:58;;;;;;;19.83;14.57;;;;;;;16.56;85.07;101722.75;5054414;28;20033;-82
2022/07/24 03:00:23;;;;;;;19.27;14.97;;;;;;;16.47;85.70;101721.38;5055667;28;20432;-82
2022/07/24 03:02:49;;;;;;;18.83;14.73;;;;;;;16.43;85.53;101731.13;5056187;28;20036;-82
2022/07/24 03:05:14;;;;;;;21.00;15.40;;;;;;;16.41;85.60;101727.78;5054141;28;20091;-82
2022/07/24 03:07:41;;;;;;;22.00;15.33;;;;;;;16.29;86.51;101720.38;5054145;28;20465;-82
2022/07/24 03:10:09;;;;;;;17.60;14.53;;;;;;;16.28;86.55;101715.94;5053599;28;20032;-82
2022/07/24 03:12:35;;;;;;;20.63;15.30;;;;;;;16.24;86.75;101719.34;5055574;28;20519;-82
2022/07/24 03:15:00;;;;;;;20.00;14.97;;;;;;;16.20;86.96;101708.06;5054892;28;20033;-82
2022/07/24 03:17:26;;;;;;;22.27;15.10;;;;;;;16.22;87.39;101719.59;5055429;28;20079;-82
2022/07/24 03:19:51;;;;;;;18.53;14.77;;;;;;;16.17;87.61;101719.47;5054182;28;20057;-82
2022/07/24 03:22:16;;;;;;;19.67;14.97;;;;;;;16.16;87.14;101723.25;5024865;28;20032;-83
2022/07/24 03:24:42;;;;;;;18.27;14.73;;;;;;;16.16;87.53;101723.25;5053983;28;20032;-82
2022/07/24 03:27:07;;;;;;;19.40;15.10;;;;;;;16.13;87.63;101716.34;5053826;28;20029;-83
2022/07/24 03:29:33;;;;;;;18.57;14.47;;;;;;;16.12;87.83;101711.09;5059674;28;20065;-83
2022/07/24 03:31:58;;;;;;;20.60;14.73;;;;;;;16.10;87.70;101707.75;5047136;28;20059;-83
2022/07/24 03:34:24;;;;;;;20.30;14.70;;;;;;;16.16;87.89;101706.84;5062508;28;20056;-82
2022/07/24 03:36:49;;;;;;;19.90;14.57;;;;;;;16.14;88.01;101711.69;5058037;28;20082;-82
2022/07/24 03:39:15;;;;;;;21.07;15.87;;;;;;;16.12;88.18;101714.66;5056126;28;20049;-82
2022/07/24 03:41:40;;;;;;;19.63;16.00;;;;;;;16.05;88.31;101711.19;5055087;28;20353;-82
2022/07/24 03:44:06;;;;;;;21.90;17.33;;;;;;;16.02;88.94;101711.63;5053350;28;20663;-83
2022/07/24 03:46:32;;;;;;;22.63;17.33;;;;;;;16.04;89.15;101709.50;5045196;28;20351;-83
2022/07/24 03:48:57;;;;;;;20.67;17.17;;;;;;;16.01;89.29;101718.16;5067017;28;20035;-82
2022/07/24 03:51:23;;;;;;;22.10;16.53;;;;;;;15.99;89.25;101717.53;5043099;28;20090;-83
2022/07/24 03:53:48;;;;;;;23.73;18.37;;;;;;;16.01;89.63;101710.78;5058565;28;20083;-82
2022/07/24 03:56:15;;;;;;;23.47;19.70;;;;;;;16.04;89.65;101698.56;5054948;28;20021;-82
2022/07/24 03:58:41;;;;;;;25.77;20.20;;;;;;;16.10;89.90;101707.75;5055183;28;20048;-83
2022/07/24 04:01:06;;;;;;;25.37;21.30;;;;;;;16.13;90.35;101712.75;5054387;28;20087;-83
2022/07/24 04:03:32;;;;;;;26.87;20.77;;;;;;;16.15;90.63;101707.91;5056803;28;20025;-83
2022/07/24 04:06:00;;;;;;;25.77;20.80;;;;;;;16.12;90.95;101700.16;5094678;28;20547;-82
2022/07/24 04:08:25;;;;;;;29.07;23.47;;;;;;;16.18;91.23;101704.72;5095655;28;20062;-83
2022/07/24 04:10:56;;;;;;;25.33;21.50;;;;;;;16.20;91.27;101702.59;5093523;28;20024;-82
2022/07/24 04:13:23;;;;;;;28.40;21.83;;;;;;;16.13;91.27;101702.66;5056955;28;20423;-83
2022/07/24 04:15:48;;;;;;;31.50;22.13;;;;;;;16.22;91.20;101699.63;5078217;28;20041;-83
2022/07/24 04:18:14;;;;;;;28.43;22.30;;;;;;;16.23;91.63;101704.84;5094969;28;20028;-83
2022/07/24 04:20:39;;;;;;;30.67;24.23;;;;;;;16.28;91.06;101705.00;5094477;28;20115;-83
2022/07/24 04:23:04;;;;;;;30.83;24.33;;;;;;;16.29;91.26;101705.84;5094708;28;20077;-83
2022/07/24 04:25:30;;;;;;;29.13;21.97;;;;;;;16.20;91.65;101692.47;5076900;28;20020;-83
2022/07/24 04:27:55;;;;;;;34.07;26.63;;;;;;;16.30;91.62;101700.13;5074797;28;20071;-83
2022/07/24 04:30:20;;;;;;;29.43;24.27;;;;;;;16.31;91.51;101707.28;5092073;28;20024;-82
2022/07/24 04:32:46;;;;;;;29.37;24.10;;;;;;;16.31;91.58;101715.50;5093609;28;20049;-82
2022/07/24 04:35:11;;;;;;;27.47;22.97;;;;;;;16.30;91.15;101713.81;5093756;28;20379;-82
2022/07/24 04:37:36;;;;;;;31.60;23.43;;;;;;;16.30;91.35;101718.47;5075865;28;20036;-82
2022/07/24 04:40:02;;;;;;;29.60;23.97;;;;;;;16.34;91.34;101715.03;5093808;28;20027;-82
2022/07/24 04:42:28;;;;;;;31.50;24.97;;;;;;;16.34;91.56;101725.97;5074915;28;20039;-82
2022/07/24 04:44:53;;;;;;;29.30;24.63;;;;;;;16.35;91.42;101733.09;5079478;28;20047;-82
2022/07/24 04:47:18;;;;;;;28.87;23.27;;;;;;;16.35;91.08;101716.69;5090034;28;20535;-82
2022/07/24 04:49:44;;;;;;;32.03;24.20;;;;;;;16.33;91.39;101720.72;5084320;28;20157;-83
2022/07/24 04:52:09;;;;;;;30.67;24.03;;;;;;;16.33;91.07;101724.31;5111989;28;20344;-82
2022/07/24 04:54:34;;;;;;;29.97;24.43;;;;;;;16.36;90.92;101729.31;5074135;28;20049;-82
2022/07/24 04:57:00;;;;;;;30.37;24.97;;;;;;;16.38;91.21;101727.16;5093594;28;20028;-82
2022/07/24 04:59:25;;;;;;;31.87;24.53;;;;;;;16.40;91.30;101720.66;5103260;28;20474;-82
2022/07/24 05:01:51;;;;;;;31.70;25.50;;;;;;;16.42;91.33;101721.25;5109126;28;20030;-83
2022/07/24 05:04:16;;;;;;;31.73;25.57;;;;;;;16.41;90.86;101714.13;5114237;28;20360;-82
2022/07/24 05:06:41;;;;;;;31.23;26.43;;;;;;;16.50;91.45;101723.69;5114316;28;20055;-82
2022/07/24 05:09:07;;;;;;;31.23;26.13;;;;;;;16.51;91.68;101717.16;5078691;28;20077;-83
2022/07/24 05:11:32;;;;;;;33.17;27.53;;;;;;;16.58;91.28;101720.63;5091526;28;20070;-84
2022/07/24 05:13:57;;;;;;;35.97;28.00;;;;;;;16.62;91.63;101721.84;5081080;28;20446;-83
2022/07/24 05:16:23;;;;;;;36.30;29.23;;;;;;;16.65;92.16;101721.38;5096990;28;20028;-84
2022/07/24 05:18:48;;;;;;;40.20;31.93;;;;;;;16.71;91.56;101714.97;5069306;28;20043;-84
2022/07/24 05:21:14;;;;;;;40.70;32.33;;;;;;;16.72;91.92;101715.81;5098445;28;20038;-82
2022/07/24 05:23:39;;;;;;;40.17;32.73;;;;;;;16.83;91.28;101711.44;5079660;28;20092;-82
2022/07/24 05:26:05;;;;;;;41.03;32.50;;;;;;;16.86;91.26;101716.44;5094147;28;20082;-83
2022/07/24 05:28:31;;;;;;;39.60;32.83;;;;;;;16.93;90.95;101728.19;5088601;28;20077;-83
2022/07/24 05:30:57;;;;;;;39.83;32.43;;;;;;;17.00;90.76;101728.91;5072035;28;20040;-82
2022/07/24 05:33:22;;;;;;;37.67;32.57;;;;;;;17.03;90.94;101724.88;5081847;28;20361;-82
2022/07/24 05:35:47;;;;;;;38.40;30.87;;;;;;;17.09;90.90;101731.31;5090465;28;20136;-82
2022/07/24 05:38:13;;;;;;;36.80;30.90;;;;;;;17.15;90.94;101730.41;5094038;28;20031;-82
2022/07/24 05:40:38;;;;;;;39.13;32.23;;;;;;;17.17;90.83;101728.25;5075426;28;20032;-83
2022/07/24 05:43:03;;;;;;;40.50;33.47;;;;;;;17.22;90.58;101747.53;5079765;28;20025;-84
2022/07/24 05:45:29;;;;;;;39.00;31.70;;;;;;;17.26;90.10;101748.75;5086802;28;20349;-83
2022/07/24 05:47:54;;;;;;;38.03;31.80;;;;;;;17.28;90.46;101738.38;5090612;28;20028;-83
2022/07/24 05:50:19;;;;;;;37.20;32.20;;;;;;;17.34;90.73;101742.94;5075524;28;20028;-82
2022/07/24 05:52:45;;;;;;;40.33;33.13;;;;;;;17.40;90.47;101735.66;5093069;28;20036;-83
2022/07/24 05:55:10;;;;;;;36.27;31.33;;;;;;;17.48;90.94;101743.53;5095328;28;20439;-82
2022/07/24 05:57:36;;;;;;;38.30;32.27;;;;;;;17.52;89.93;101738.44;5085678;28;20038;-84
2022/07/24 06:00:02;;;;;;;39.23;32.30;;;;;;;17.61;90.65;101747.97;5078827;28;20031;-82
2022/07/24 06:02:28;;;;;;;36.20;30.43;;;;;;;17.71;89.88;101750.94;5096825;28;20020;-82
2022/07/24 06:04:53;;;;;;;37.57;30.93;;;;;;;17.75;88.79;101745.84;5079258;28;20173;-82
2022/07/24 06:07:18;;;;;;;37.80;31.07;;;;;;;17.84;89.35;101755.38;5079480;28;20118;-83
2022/07/24 06:09:44;;;;;;;38.40;30.43;;;;;;;17.89;88.09;101743.69;5089993;28;20060;-82
2022/07/24 06:12:09;;;;;;;37.77;30.30;;;;;;;18.04;88.20;101754.19;5077189;28;20031;-83
2022/07/24 06:14:35;;;;;;;35.57;30.27;;;;;;;18.13;87.44;101755.50;5085395;28;20035;-83
2022/07/24 06:17:00;;;;;;;36.07;30.43;;;;;;;18.17;86.23;101753.94;5117359;28;20020;-83
2022/07/24 06:22:47;;;;;;;38.00;29.70;;;;;;;18.37;83.94;101750.81;5117649;28;20489;-85
2022/07/24 06:25:14;;;;;;;34.93;29.03;;;;;;;18.46;83.61;101761.41;5117317;28;20059;-83
2022/07/24 06:27:44;;;;;;;33.60;27.97;;;;;;;18.59;83.84;101755.66;5097409;28;20464;-82
2022/07/24 06:30:24;;;;;;;35.07;29.00;;;;;;;18.65;83.51;101743.66;5077664;28;20462;-83
2022/07/24 06:32:51;;;;;;;32.47;27.40;;;;;;;18.85;83.33;101756.97;5072352;28;20028;-82
2022/07/24 06:35:17;;;;;;;33.53;27.47;;;;;;;18.93;81.57;101749.44;5078925;28;20094;-82
2022/07/24 06:37:43;;;;;;;31.97;25.43;;;;;;;19.06;80.51;101752.69;5064381;28;20028;-82
2022/07/24 06:40:09;;;;;;;30.30;24.13;;;;;;;19.17;79.13;101748.22;5097102;28;20040;-82
2022/07/24 06:42:34;;;;;;;29.80;22.40;;;;;;;19.26;77.35;101743.19;5102180;28;20535;-83
2022/07/24 06:45:06;;;;;;;28.05;22.77;;;;;;;19.38;76.41;101757.66;5113001;28;20111;-84
2022/07/24 06:47:31;;;;;;;25.90;20.50;;;;;;;19.50;75.63;101762.25;5117438;28;20059;-83
2022/07/24 06:49:57;;;;;;;25.27;18.85;;;;;;;19.57;74.25;101754.69;5117036;28;20059;-85
2022/07/24 06:52:22;;;;;;;22.63;17.58;;;;;;;19.66;72.86;101752.34;5116899;28;20474;-83
2022/07/24 06:54:48;;;;;;;22.83;17.05;;;;;;;19.78;73.41;101750.31;5117288;28;20129;-84
2022/07/24 06:57:14;;;;;;;23.77;18.42;;;;;;;19.95;73.78;101746.75;5117040;28;20024;-86
2022/07/24 06:59:40;;;;;;;24.45;17.95;;;;;;;19.96;72.55;101724.47;5112571;28;20101;-84
2022/07/24 07:02:05;;;;;;;20.95;15.45;;;;;;;20.15;67.84;101748.94;5094968;28;20444;-85
2022/07/24 07:04:31;;;;;;;21.02;15.15;;;;;;;20.28;68.23;101733.97;5077770;28;20055;-85
2022/07/24 07:06:56;;;;;;;19.38;13.82;;;;;;;20.35;67.38;101734.63;5060532;28;20048;-87
2022/07/24 07:09:22;;;;;;;20.20;13.52;;;;;;;20.46;66.74;101744.66;5085173;28;20047;-84
2022/07/24 07:11:47;;;;;;;17.40;11.27;;;;;;;20.54;64.25;101746.16;5096518;28;20024;-87
2022/07/24 07:14:13;;;;;;;16.50;11.20;;;;;;;20.55;62.87;101736.81;5092912;28;20025;-85
2022/07/24 07:16:38;;;;;;;15.70;11.90;;;;;;;20.71;63.88;101738.69;5079343;28;20119;-84
2022/07/24 07:19:03;;;;;;;15.57;10.95;;;;;;;20.85;63.65;101730.81;5085319;28;20514;-84
2022/07/24 07:21:29;;;;;;;17.55;11.15;;;;;;;20.95;63.39;101743.06;5081798;28;20031;-84
2022/07/24 07:23:54;;;;;;;13.68;9.40;;;;;;;21.05;61.60;101749.50;5079179;28;20024;-87
2022/07/24 07:26:19;;;;;;;13.98;9.45;;;;;;;21.15;61.53;101757.03;5096989;28;20486;-85
2022/07/24 07:28:45;;;;;;;12.80;9.20;;;;;;;21.29;61.13;101762.09;5087363;28;20527;-85
2022/07/24 07:31:10;;;;;;;14.35;9.55;;;;;;;21.42;60.13;101754.22;5095952;28;20079;-87
2022/07/24 07:33:36;;;;;;;11.75;7.93;;;;;;;21.50;59.08;101757.59;5094680;28;20055;-85
2022/07/24 07:36:01;;;;;;;10.82;7.72;;;;;;;21.54;59.31;101742.19;5080445;28;20109;-83
2022/07/24 07:38:27;;;;;;;11.30;7.70;;;;;;;21.81;58.68;101757.84;5090921;28;20031;-84
2022/07/24 07:40:52;;;;;;;12.63;8.07;;;;;;;21.90;58.55;101759.84;5097638;28;20032;-86
2022/07/24 07:43:17;;;;;;;8.15;6.50;;;;;;;21.91;56.22;101744.94;5090041;28;20439;-86
2022/07/24 07:45:43;;;;;;;10.45;6.38;;;;;;;22.06;55.64;101763.53;5094700;28;20024;-85
2022/07/24 07:48:08;;;;;;;8.38;6.03;;;;;;;22.16;56.39;101759.16;5098104;28;20371;-85
2022/07/24 07:50:34;;;;;;;8.90;5.90;;;;;;;22.18;55.36;101754.19;5103152;28;20341;-84
2022/07/24 07:52:59;;;;;;;8.32;5.72;;;;;;;22.30;53.81;101752.03;5085788;28;20099;-85
2022/07/24 07:55:25;;;;;;;8.27;5.53;;;;;;;22.35;54.99;101760.38;5093830;28;20032;-84
2022/07/24 07:57:50;;;;;;;8.02;5.40;;;;;;;22.40;52.80;101757.66;5059482;28;20039;-86
2022/07/24 08:00:16;;;;;;;8.82;4.78;;;;;;;22.49;51.85;101752.44;5088279;28;20036;-85
2022/07/24 08:02:41;;;;;;;6.05;4.78;;;;;;;22.68;53.43;101746.44;5075430;28;20464;-84
2022/07/24 08:05:07;;;;;;;5.18;3.90;;;;;;;22.88;52.30;101748.41;5076021;28;20475;-86
2022/07/24 08:07:33;;;;;;;4.88;3.80;;;;;;;22.95;51.61;101740.69;5093582;28;20030;-85
2022/07/24 08:09:59;;;;;;;5.78;3.60;;;;;;;22.95;50.35;101732.38;5092774;28;20468;-87
2022/07/24 08:12:24;;;;;;;5.82;3.47;;;;;;;22.92;49.84;101731.00;5099388;28;20127;-84
2022/07/24 08:14:49;;;;;;;4.88;3.50;;;;;;;23.11;49.35;101738.78;5094712;28;20032;-87
2022/07/24 08:17:15;;;;;;;4.10;3.58;;;;;;;23.25;49.58;101739.94;5093401;28;20147;-84
2022/07/24 08:19:41;;;;;;;4.25;3.30;;;;;;;23.42;50.89;101744.34;5087678;28;20035;-83
2022/07/24 08:22:07;;;;;;;3.80;2.95;;;;;;;23.53;50.34;101748.75;5103223;28;20036;-82
2022/07/24 08:24:32;;;;;;;5.38;3.60;;;;;;;23.64;49.41;101744.06;5092973;28;20522;-83
2022/07/24 08:26:58;;;;;;;3.80;3.40;;;;;;;23.81;48.05;101753.97;5094650;28;20521;-84
2022/07/24 08:29:24;;;;;;;3.88;3.05;;;;;;;24.04;48.98;101747.03;5098781;28;20020;-86
2022/07/24 08:31:50;;;;;;;6.50;3.33;;;;;;;24.21;50.54;101749.50;5105901;28;20027;-85
2022/07/24 08:34:16;;;;;;;4.45;3.38;;;;;;;24.31;45.94;101749.44;5104923;28;21156;-87
2022/07/24 08:36:45;;;;;;;5.32;3.40;;;;;;;24.57;47.63;101750.16;5096866;28;20063;-84
2022/07/24 08:39:13;;;;;;;3.25;3.00;;;;;;;24.80;47.09;101750.59;5112434;28;20031;-88
2022/07/24 08:41:39;;;;;;;3.55;3.10;;;;;;;24.83;46.89;101743.66;5075543;28;20032;-85
2022/07/24 08:44:05;;;;;;;4.00;3.05;;;;;;;25.01;46.45;101740.22;5083218;28;20035;-88
2022/07/24 08:46:32;;;;;;;4.40;3.10;;;;;;;25.14;45.91;101751.78;5092153;28;20062;-85
2022/07/24 08:48:58;;;;;;;4.38;3.28;;;;;;;25.26;45.13;101733.63;5076059;28;20043;-88
2022/07/24 08:51:35;;;;;;;3.47;2.95;;;;;;;25.30;45.31;101742.22;5081770;28;20527;-86
2022/07/24 08:54:02;;;;;;;4.22;3.53;;;;;;;25.40;45.27;101735.78;5104224;28;20034;-85
2022/07/24 08:56:40;;;;;;;4.80;3.58;;;;;;;25.70;45.44;101715.22;5092733;28;20434;-86
2022/07/24 08:59:16;;;;;;;4.22;3.50;;;;;;;25.97;46.86;101738.00;5114590;28;20023;-85
2022/07/24 09:01:41;;;;;;;3.38;2.92;;;;;;;25.91;43.24;101735.28;5114458;28;20027;-84
2022/07/24 09:04:45;;;;;;;5.63;3.80;;;;;;;26.13;44.20;101738.69;5071713;28;20024;-83
2022/07/24 09:14:31;;;;;;;4.90;3.50;;;;;;;26.66;45.35;101744.09;5096325;28;20055;-82
2022/07/24 09:17:07;;;;;;;4.43;3.10;;;;;;;26.65;44.80;101734.09;5083070;28;20093;-84
2022/07/24 09:19:54;;;;;;;3.85;3.15;;;;;;;26.72;45.35;101731.81;5096462;28;20024;-84
2022/07/24 09:22:45;;;;;;;3.63;3.33;;;;;;;26.87;45.82;101727.16;5094965;28;20024;-83
2022/07/24 09:25:13;;;;;;;3.58;3.13;;;;;;;26.86;45.55;101720.78;5072331;28;20432;-83
2022/07/24 09:27:50;;;;;;;6.03;3.33;;;;;;;26.60;43.53;101725.81;5089177;28;20024;-84
2022/07/24 09:30:32;;;;;;;4.47;3.33;;;;;;;26.63;44.42;101720.50;5091467;28;20032;-84
2022/07/24 09:33:02;;;;;;;3.30;3.00;;;;;;;26.90;44.80;101723.75;5082772;28;20039;-83
2022/07/24 09:35:36;;;;;;;4.47;3.15;;;;;;;26.78;43.40;101725.06;5080147;28;20115;-83
2022/07/24 09:38:03;;;;;;;4.22;3.05;;;;;;;27.03;43.82;101717.44;5092479;28;20023;-83
2022/07/24 09:40:41;;;;;;;3.88;3.30;;;;;;;27.20;44.05;101721.59;5103667;28;20118;-82
2022/07/24 09:43:18;;;;;;;4.57;2.92;;;;;;;27.54;44.27;101714.94;5095809;28;20031;-83
2022/07/24 09:46:04;;;;;;;4.43;3.33;;;;;;;27.85;43.00;101706.00;5091991;28;20047;-83
2022/07/24 09:48:50;;;;;;;4.15;3.22;;;;;;;27.57;42.93;101715.16;5093549;28;20107;-86
2022/07/24 09:51:16;;;;;;;3.65;3.25;;;;;;;27.72;42.04;101704.88;5099279;28;20027;-84
2022/07/24 09:53:44;;;;;;;3.90;2.88;;;;;;;27.79;42.83;101711.66;5109376;28;20062;-82
2022/07/24 09:56:12;;;;;;;3.25;2.92;;;;;;;27.87;42.50;101714.88;5074800;28;20032;-83
2022/07/24 09:58:48;;;;;;;3.90;3.00;;;;;;;27.89;42.79;101707.03;5096840;28;20043;-84
2022/07/24 10:04:37;;;;;;;3.60;3.30;;;;;;;27.88;41.77;101697.03;5093646;28;20383;-83
2022/07/24 10:07:05;;;;;;;7.10;3.85;;;;;;;27.84;40.39;101688.47;5093535;28;20126;-84
2022/07/24 10:09:33;;;;;;;3.35;3.05;;;;;;;28.27;43.57;101687.34;5093464;28;20106;-84
2022/07/24 10:12:02;;;;;;;3.60;3.30;;;;;;;28.22;42.01;101693.00;5074213;28;20047;-85
2022/07/24 10:14:27;;;;;;;3.97;2.85;;;;;;;28.42;40.62;101695.38;5091710;28;20031;-83
2022/07/24 10:17:05;;;;;;;3.25;3.00;;;;;;;28.46;42.40;101684.41;5086380;28;20065;-84
2022/07/24 10:19:39;;;;;;;3.60;2.83;;;;;;;28.59;41.72;101682.72;5081137;28;20044;-86
2022/07/24 10:22:10;;;;;;;4.75;3.10;;;;;;;28.60;41.06;101678.78;5077356;28;20382;-87
2022/07/24 10:25:06;;;;;;;3.13;2.80;;;;;;;28.44;40.98;101679.13;5077435;28;21115;-84
2022/07/24 10:27:35;;;;;;;4.18;2.90;;;;;;;28.43;41.42;101685.03;5076558;28;20529;-85
2022/07/24 10:30:05;;;;;;;4.53;3.20;;;;;;;28.43;41.38;101674.69;5077169;28;21520;-87
2022/07/24 10:32:32;;;;;;;4.35;3.10;;;;;;;28.64;40.47;101679.81;5077115;28;20032;-86
2022/07/24 10:35:12;;;;;;;4.20;3.30;;;;;;;28.41;40.39;101651.06;5051183;28;20425;-86
2022/07/24 10:38:04;;;;;;;3.20;2.90;;;;;;;28.58;40.25;101664.34;5077000;28;20510;-85
2022/07/24 10:40:41;;;;;;;3.50;2.60;;;;;;;28.43;40.87;101666.34;5077087;28;20039;-85
2022/07/24 10:43:10;;;;;;;2.60;2.40;;;;;;;28.63;40.06;101672.59;5062483;28;20411;-85
2022/07/24 10:45:46;;;;;;;3.70;2.47;;;;;;;28.62;39.70;101671.75;5080668;28;20038;-85
2022/07/24 10:48:35;;;;;;;3.20;2.90;;;;;;;28.81;40.56;101665.22;5081735;28;20032;-85
2022/07/24 10:51:09;;;;;;;3.50;2.88;;;;;;;28.53;41.23;101658.88;5081494;28;20181;-84
2022/07/24 10:53:35;;;;;;;3.42;2.67;;;;;;;28.67;40.18;101661.66;5080825;28;20036;-83
2022/07/24 10:56:21;;;;;;;4.80;3.03;;;;;;;28.87;39.46;101657.53;5080752;28;20043;-83
2022/07/24 10:59:11;;;;;;;3.17;2.88;;;;;;;29.04;41.58;101659.63;5080714;28;21548;-83
2022/07/24 11:01:42;;;;;;;4.28;2.90;;;;;;;29.05;41.03;101664.06;5022761;28;20157;-83
2022/07/24 11:04:20;;;;;;;4.05;2.50;;;;;;;29.49;40.24;101655.97;5080492;28;20042;-84
2022/07/24 11:06:51;;;;;;;2.95;2.70;;;;;;;28.97;38.49;101649.75;5080036;28;20449;-85
2022/07/24 11:09:19;;;;;;;2.70;2.50;;;;;;;28.88;38.37;101648.03;5080963;28;20065;-84
2022/07/24 11:11:50;;;;;;;2.85;2.63;;;;;;;29.20;39.94;101651.66;5080179;28;20027;-87
2022/07/24 11:14:18;;;;;;;3.05;2.50;;;;;;;29.21;38.69;101644.97;5079419;28;20036;-86
2022/07/24 11:16:43;;;;;;;3.70;2.78;;;;;;;29.20;39.78;101654.47;5080022;28;20031;-84
2022/07/24 11:19:08;;;;;;;2.70;2.50;;;;;;;29.29;38.27;101642.25;5082740;28;20044;-82
2022/07/24 11:21:35;;;;;;;3.38;2.72;;;;;;;29.42;38.76;101648.06;5095819;28;20038;-83
2022/07/24 11:26:58;;;;;;;2.90;2.70;;;;;;;29.33;39.48;101644.41;5080288;28;20166;-83
2022/07/24 11:29:29;;;;;;;3.20;2.97;;;;;;;29.17;40.64;101646.75;5081117;28;20662;-83
2022/07/24 11:32:10;;;;;;;5.18;2.67;;;;;;;29.22;40.43;101639.06;5079401;28;20035;-83
2022/07/24 11:34:37;;;;;;;3.10;2.90;;;;;;;28.92;38.99;101643.47;5080572;28;20040;-83
2022/07/24 11:37:05;;;;;;;5.68;2.85;;;;;;;28.95;39.19;101629.72;5079961;28;20071;-83